sensor_id;sensor_type;location;lat;lon;timestamp;pressure;altitude;pressure_sealevel;temperature;humidity
71344;BME280;59146;43.850;25.948;2022-07-06T00:00:11;100718.59;;;25.37;48.10
71344;BME280;59146;43.850;25.948;2022-07-06T00:02:43;100794.19;;;25.83;48.16
71344;BME280;59146;43.850;25.948;2022-07-06T00:05:52;100810.88;;;25.99;47.28
71344;BME280;59146;43.850;25.948;2022-07-06T00:08:33;100817.91;;;26.00;47.65
71344;BME280;59146;43.850;25.948;2022-07-06T00:11:09;100820.34;;;26.10;47.64
71344;BME280;59146;43.850;25.948;2022-07-06T00:13:38;100691.28;;;25.27;47.13
71344;BME280;59146;43.850;25.948;2022-07-06T00:16:50;100801.59;;;26.10;46.65
71344;BME280;59146;43.850;25.948;2022-07-06T00:26:28;100814.44;;;26.15;46.54
71344;BME280;59146;43.850;25.948;2022-07-06T00:39:30;100777.88;;;25.92;46.26
71344;BME280;59146;43.850;25.948;2022-07-06T00:43:05;100817.66;;;26.10;47.57
71344;BME280;59146;43.850;25.948;2022-07-06T00:45:40;100785.63;;;25.87;47.94
71344;BME280;59146;43.850;25.948;2022-07-06T00:51:51;100738.63;;;25.41;49.56
71344;BME280;59146;43.850;25.948;2022-07-06T01:01:38;100798.06;;;25.66;53.04
71344;BME280;59146;43.850;25.948;2022-07-06T01:11:11;100815.81;;;25.44;55.72
71344;BME280;59146;43.850;25.948;2022-07-06T01:24:16;100770.88;;;24.80;58.49
71344;BME280;59146;43.850;25.948;2022-07-06T01:26:42;100802.09;;;25.02;57.76
71344;BME280;59146;43.850;25.948;2022-07-06T01:29:07;100761.19;;;24.79;58.38
71344;BME280;59146;43.850;25.948;2022-07-06T01:31:33;100808.41;;;25.09;58.70
71344;BME280;59146;43.850;25.948;2022-07-06T01:33:58;100797.09;;;24.99;58.75
71344;BME280;59146;43.850;25.948;2022-07-06T01:36:45;100771.03;;;24.78;58.55
71344;BME280;59146;43.850;25.948;2022-07-06T01:39:27;100736.81;;;24.51;59.75
71344;BME280;59146;43.850;25.948;2022-07-06T01:42:24;100812.72;;;24.87;59.65
71344;BME280;59146;43.850;25.948;2022-07-06T01:45:11;100802.50;;;24.91;59.35
71344;BME280;59146;43.850;25.948;2022-07-06T02:18:02;100808.75;;;24.53;60.01
71344;BME280;59146;43.850;25.948;2022-07-06T02:51:54;100812.31;;;24.37;62.16
71344;BME280;59146;43.850;25.948;2022-07-06T03:04:37;100792.88;;;24.20;63.04
71344;BME280;59146;43.850;25.948;2022-07-06T03:07:03;100802.19;;;24.24;62.38
71344;BME280;59146;43.850;25.948;2022-07-06T03:09:29;100755.84;;;24.17;62.22
71344;BME280;59146;43.850;25.948;2022-07-06T03:11:54;100766.19;;;24.82;60.98
71344;BME280;59146;43.850;25.948;2022-07-06T03:14:20;100802.22;;;26.27;56.88
71344;BME280;59146;43.850;25.948;2022-07-06T03:16:45;100791.28;;;27.14;53.66
71344;BME280;59146;43.850;25.948;2022-07-06T03:19:11;100795.38;;;28.21;51.19
71344;BME280;59146;43.850;25.948;2022-07-06T03:21:36;100732.09;;;28.05;50.20
71344;BME280;59146;43.850;25.948;2022-07-06T03:24:02;100758.38;;;28.70;48.97
71344;BME280;59146;43.850;25.948;2022-07-06T03:26:27;100805.22;;;29.28;48.00
71344;BME280;59146;43.850;25.948;2022-07-06T03:28:53;100754.28;;;29.66;46.35
71344;BME280;59146;43.850;25.948;2022-07-06T03:31:18;100790.66;;;30.01;46.13
71344;BME280;59146;43.850;25.948;2022-07-06T03:33:44;100786.38;;;30.44;44.83
71344;BME280;59146;43.850;25.948;2022-07-06T03:36:09;100800.50;;;31.65;42.47
71344;BME280;59146;43.850;25.948;2022-07-06T03:38:35;100815.41;;;31.67;42.53
71344;BME280;59146;43.850;25.948;2022-07-06T03:41:01;100778.22;;;31.69;42.11
71344;BME280;59146;43.850;25.948;2022-07-06T03:43:27;100801.59;;;32.18;41.39
71344;BME280;59146;43.850;25.948;2022-07-06T03:45:52;100798.38;;;32.28;40.63
71344;BME280;59146;43.850;25.948;2022-07-06T03:48:17;100808.56;;;32.44;40.53
71344;BME280;59146;43.850;25.948;2022-07-06T03:50:43;100671.81;;;32.66;38.38
71344;BME280;59146;43.850;25.948;2022-07-06T03:53:08;100809.03;;;32.59;40.22
71344;BME280;59146;43.850;25.948;2022-07-06T03:55:34;100778.75;;;32.80;39.59
71344;BME280;59146;43.850;25.948;2022-07-06T03:57:59;100787.72;;;32.92;39.38
71344;BME280;59146;43.850;25.948;2022-07-06T04:00:25;100792.09;;;33.81;38.00
71344;BME280;59146;43.850;25.948;2022-07-06T04:02:50;100788.44;;;34.38;36.88
71344;BME280;59146;43.850;25.948;2022-07-06T04:05:15;100764.66;;;33.66;38.01
71344;BME280;59146;43.850;25.948;2022-07-06T04:07:49;100742.97;;;33.31;38.12
71344;BME280;59146;43.850;25.948;2022-07-06T06:28:44;100882.66;;;32.72;40.22
71344;BME280;59146;43.850;25.948;2022-07-06T07:11:30;100851.69;;;33.92;38.80
71344;BME280;59146;43.850;25.948;2022-07-06T07:13:56;100859.50;;;34.63;37.41
71344;BME280;59146;43.850;25.948;2022-07-06T07:16:22;100844.38;;;33.93;38.30
71344;BME280;59146;43.850;25.948;2022-07-06T07:18:50;100854.63;;;33.68;39.24
71344;BME280;59146;43.850;25.948;2022-07-06T07:21:15;100868.06;;;33.51;39.61
71344;BME280;59146;43.850;25.948;2022-07-06T07:23:41;100851.75;;;33.39;40.14
71344;BME280;59146;43.850;25.948;2022-07-06T07:26:06;100845.47;;;33.16;39.78
71344;BME280;59146;43.850;25.948;2022-07-06T07:28:31;100879.13;;;33.73;39.09
71344;BME280;59146;43.850;25.948;2022-07-06T07:30:57;100886.56;;;33.89;38.50
71344;BME280;59146;43.850;25.948;2022-07-06T07:33:22;100823.13;;;33.32;39.00
71344;BME280;59146;43.850;25.948;2022-07-06T07:35:48;100830.13;;;33.86;38.28
71344;BME280;59146;43.850;25.948;2022-07-06T07:38:13;100867.00;;;33.87;38.15
71344;BME280;59146;43.850;25.948;2022-07-06T07:40:38;100849.50;;;33.36;39.41
71344;BME280;59146;43.850;25.948;2022-07-06T07:43:04;100864.88;;;33.66;39.06
71344;BME280;59146;43.850;25.948;2022-07-06T07:45:29;100829.31;;;33.50;39.39
71344;BME280;59146;43.850;25.948;2022-07-06T07:47:55;100875.13;;;33.98;38.47
71344;BME280;59146;43.850;25.948;2022-07-06T07:50:20;100764.28;;;33.27;38.99
71344;BME280;59146;43.850;25.948;2022-07-06T07:52:46;100842.72;;;33.69;39.43
71344;BME280;59146;43.850;25.948;2022-07-06T07:55:11;100842.75;;;33.57;39.65
71344;BME280;59146;43.850;25.948;2022-07-06T07:57:37;100841.94;;;34.03;38.10
71344;BME280;59146;43.850;25.948;2022-07-06T08:00:04;100744.53;;;33.38;37.44
71344;BME280;59146;43.850;25.948;2022-07-06T08:02:30;100786.19;;;33.84;37.33
71344;BME280;59146;43.850;25.948;2022-07-06T08:04:55;100872.78;;;33.79;39.25
71344;BME280;59146;43.850;25.948;2022-07-06T08:07:21;100799.94;;;33.36;38.82
71344;BME280;59146;43.850;25.948;2022-07-06T08:09:46;100864.91;;;34.12;38.20
71344;BME280;59146;43.850;25.948;2022-07-06T08:12:11;100861.38;;;34.11;37.99
71344;BME280;59146;43.850;25.948;2022-07-06T08:14:37;100727.78;;;33.64;37.13
71344;BME280;59146;43.850;25.948;2022-07-06T08:17:03;100815.75;;;34.08;37.07
71344;BME280;59146;43.850;25.948;2022-07-06T08:19:28;100812.94;;;33.69;38.18
71344;BME280;59146;43.850;25.948;2022-07-06T08:21:55;100872.03;;;34.41;37.10
71344;BME280;59146;43.850;25.948;2022-07-06T08:24:21;100868.88;;;34.21;37.24
71344;BME280;59146;43.850;25.948;2022-07-06T08:26:46;100848.72;;;34.28;37.34
71344;BME280;59146;43.850;25.948;2022-07-06T08:29:12;100878.06;;;34.83;35.71
71344;BME280;59146;43.850;25.948;2022-07-06T08:51:57;100836.84;;;34.06;35.95
71344;BME280;59146;43.850;25.948;2022-07-06T08:54:22;100850.53;;;33.77;36.44
71344;BME280;59146;43.850;25.948;2022-07-06T08:56:48;100824.03;;;33.03;38.15
71344;BME280;59146;43.850;25.948;2022-07-06T08:59:15;100881.28;;;33.29;38.16
71344;BME280;59146;43.850;25.948;2022-07-06T09:01:40;100862.88;;;32.90;39.05
71344;BME280;59146;43.850;25.948;2022-07-06T09:04:07;100836.56;;;32.67;39.59
71344;BME280;59146;43.850;25.948;2022-07-06T09:06:34;100859.09;;;32.91;38.40
71344;BME280;59146;43.850;25.948;2022-07-06T09:09:05;100841.91;;;32.56;39.93
71344;BME280;59146;43.850;25.948;2022-07-06T09:11:31;100748.78;;;31.61;39.90
71344;BME280;59146;43.850;25.948;2022-07-06T09:13:57;100863.38;;;31.96;41.11
71344;BME280;59146;43.850;25.948;2022-07-06T09:16:27;100863.00;;;32.11;40.64
71344;BME280;59146;43.850;25.948;2022-07-06T09:18:53;100866.38;;;32.25;41.18
71344;BME280;59146;43.850;25.948;2022-07-06T09:21:23;100794.75;;;31.79;40.06
71344;BME280;59146;43.850;25.948;2022-07-06T09:23:57;100882.72;;;32.11;41.18
71344;BME280;59146;43.850;25.948;2022-07-06T09:26:24;100832.59;;;31.97;40.81
71344;BME280;59146;43.850;25.948;2022-07-06T09:28:50;100851.63;;;31.60;41.84
71344;BME280;59146;43.850;25.948;2022-07-06T09:31:15;100876.81;;;31.54;41.75
71344;BME280;59146;43.850;25.948;2022-07-06T09:34:02;100795.28;;;31.14;41.41
71344;BME280;59146;43.850;25.948;2022-07-06T09:36:47;100869.63;;;31.41;41.56
71344;BME280;59146;43.850;25.948;2022-07-06T09:41:42;100825.56;;;31.47;41.85
71344;BME280;59146;43.850;25.948;2022-07-06T09:44:09;100802.22;;;31.03;41.84
71344;BME280;59146;43.850;25.948;2022-07-06T09:46:40;100856.13;;;31.10;42.80
71344;BME280;59146;43.850;25.948;2022-07-06T09:49:06;100878.34;;;31.36;41.86
71344;BME280;59146;43.850;25.948;2022-07-06T09:51:35;100879.09;;;31.57;41.56
71344;BME280;59146;43.850;25.948;2022-07-06T09:54:05;100862.66;;;31.58;41.67
71344;BME280;59146;43.850;25.948;2022-07-06T09:56:42;100792.66;;;31.32;40.66
71344;BME280;59146;43.850;25.948;2022-07-06T09:59:11;100837.19;;;31.48;40.13
71344;BME280;59146;43.850;25.948;2022-07-06T10:01:37;100834.31;;;31.67;40.41
71344;BME280;59146;43.850;25.948;2022-07-06T10:04:05;100748.25;;;31.28;40.74
71344;BME280;59146;43.850;25.948;2022-07-06T10:06:31;100831.69;;;32.03;39.53
71344;BME280;59146;43.850;25.948;2022-07-06T10:08:58;100840.47;;;31.99;39.41
71344;BME280;59146;43.850;25.948;2022-07-06T10:11:24;100862.47;;;32.02;39.81
71344;BME280;59146;43.850;25.948;2022-07-06T10:13:55;100818.78;;;31.63;39.83
71344;BME280;59146;43.850;25.948;2022-07-06T10:16:24;100831.34;;;31.51;40.60
71344;BME280;59146;43.850;25.948;2022-07-06T10:18:50;100860.69;;;32.15;39.24
71344;BME280;59146;43.850;25.948;2022-07-06T10:21:19;100871.56;;;32.44;38.26
71344;BME280;59146;43.850;25.948;2022-07-06T10:23:46;100837.19;;;31.72;39.68
71344;BME280;59146;43.850;25.948;2022-07-06T10:26:12;100817.25;;;31.91;39.07
71344;BME280;59146;43.850;25.948;2022-07-06T10:28:38;100852.34;;;31.98;40.67
71344;BME280;59146;43.850;25.948;2022-07-06T10:31:04;100740.09;;;31.41;40.17
71344;BME280;59146;43.850;25.948;2022-07-06T10:33:31;100811.59;;;31.75;39.87
71344;BME280;59146;43.850;25.948;2022-07-06T10:35:58;100824.16;;;31.87;39.85
71344;BME280;59146;43.850;25.948;2022-07-06T10:38:34;100796.56;;;31.36;40.85
71344;BME280;59146;43.850;25.948;2022-07-06T10:41:08;100781.81;;;31.63;39.11
71344;BME280;59146;43.850;25.948;2022-07-06T10:43:36;100815.09;;;31.57;39.04
71344;BME280;59146;43.850;25.948;2022-07-06T10:46:12;100853.44;;;31.41;39.67
71344;BME280;59146;43.850;25.948;2022-07-06T10:48:48;100801.91;;;31.18;39.42
71344;BME280;59146;43.850;25.948;2022-07-06T10:51:25;100805.34;;;31.00;40.63
71344;BME280;59146;43.850;25.948;2022-07-06T10:53:59;100799.38;;;31.23;39.58
71344;BME280;59146;43.850;25.948;2022-07-06T10:56:37;100817.50;;;31.16;39.01
71344;BME280;59146;43.850;25.948;2022-07-06T10:59:09;100794.22;;;31.15;40.28
71344;BME280;59146;43.850;25.948;2022-07-06T11:01:36;100803.19;;;31.40;39.47
71344;BME280;59146;43.850;25.948;2022-07-06T11:06:31;100852.88;;;31.57;39.96
71344;BME280;59146;43.850;25.948;2022-07-06T11:09:06;100728.47;;;30.85;39.27
71344;BME280;59146;43.850;25.948;2022-07-06T11:14:15;100790.56;;;31.09;39.00
71344;BME280;59146;43.850;25.948;2022-07-06T11:19:14;100759.22;;;31.40;38.17
71344;BME280;59146;43.850;25.948;2022-07-06T11:21:50;100795.25;;;31.20;38.52
71344;BME280;59146;43.850;25.948;2022-07-06T11:24:20;100776.97;;;30.98;39.50
71344;BME280;59146;43.850;25.948;2022-07-06T11:26:47;100831.25;;;31.32;38.60
71344;BME280;59146;43.850;25.948;2022-07-06T11:29:14;100810.59;;;31.20;38.59
71344;BME280;59146;43.850;25.948;2022-07-06T11:31:41;100828.69;;;31.13;39.20
71344;BME280;59146;43.850;25.948;2022-07-06T11:34:09;100819.53;;;31.20;38.47
71344;BME280;59146;43.850;25.948;2022-07-06T11:36:35;100814.16;;;31.45;38.59
71344;BME280;59146;43.850;25.948;2022-07-06T11:39:01;100717.31;;;30.81;37.96
71344;BME280;59146;43.850;25.948;2022-07-06T11:41:27;100759.06;;;31.28;38.21
71344;BME280;59146;43.850;25.948;2022-07-06T11:43:53;100782.91;;;31.31;37.67
71344;BME280;59146;43.850;25.948;2022-07-06T11:46:26;100739.75;;;31.31;37.95
71344;BME280;59146;43.850;25.948;2022-07-06T11:49:06;100799.28;;;31.61;37.77
71344;BME280;59146;43.850;25.948;2022-07-06T11:51:35;100801.59;;;31.57;38.10
71344;BME280;59146;43.850;25.948;2022-07-06T11:54:07;100782.69;;;31.32;38.66
71344;BME280;59146;43.850;25.948;2022-07-06T11:56:34;100760.81;;;31.16;39.15
71344;BME280;59146;43.850;25.948;2022-07-06T11:59:00;100761.09;;;31.57;38.55
71344;BME280;59146;43.850;25.948;2022-07-06T12:01:27;100778.84;;;31.89;38.43
71344;BME280;59146;43.850;25.948;2022-07-06T12:03:57;100786.94;;;31.89;37.21
71344;BME280;59146;43.850;25.948;2022-07-06T12:06:24;100749.56;;;31.50;38.17
71344;BME280;59146;43.850;25.948;2022-07-06T12:08:56;100795.47;;;31.68;38.11
71344;BME280;59146;43.850;25.948;2022-07-06T12:11:27;100763.75;;;31.39;38.44
71344;BME280;59146;43.850;25.948;2022-07-06T12:13:54;100752.31;;;31.19;38.41
71344;BME280;59146;43.850;25.948;2022-07-06T12:16:21;100781.16;;;31.43;39.49
71344;BME280;59146;43.850;25.948;2022-07-06T12:18:49;100778.72;;;31.35;40.31
71344;BME280;59146;43.850;25.948;2022-07-06T12:21:17;100763.44;;;31.29;40.15
71344;BME280;59146;43.850;25.948;2022-07-06T12:23:45;100723.44;;;30.95;39.40
71344;BME280;59146;43.850;25.948;2022-07-06T12:26:13;100741.50;;;31.19;39.70
71344;BME280;59146;43.850;25.948;2022-07-06T12:28:39;100729.84;;;31.25;39.41
71344;BME280;59146;43.850;25.948;2022-07-06T12:31:05;100731.19;;;31.09;38.88
71344;BME280;59146;43.850;25.948;2022-07-06T12:33:31;100739.19;;;30.98;38.75
71344;BME280;59146;43.850;25.948;2022-07-06T12:35:57;100736.75;;;30.90;39.79
71344;BME280;59146;43.850;25.948;2022-07-06T12:38:26;100725.59;;;30.80;39.69
71344;BME280;59146;43.850;25.948;2022-07-06T12:40:53;100757.03;;;30.99;39.18
71344;BME280;59146;43.850;25.948;2022-07-06T12:43:39;100773.44;;;30.97;39.07
71344;BME280;59146;43.850;25.948;2022-07-06T12:46:30;100769.06;;;30.96;39.83
71344;BME280;59146;43.850;25.948;2022-07-06T12:48:57;100731.94;;;31.23;40.06
71344;BME280;59146;43.850;25.948;2022-07-06T12:51:23;100716.59;;;31.17;39.19
71344;BME280;59146;43.850;25.948;2022-07-06T12:53:49;100704.28;;;31.03;39.86
71344;BME280;59146;43.850;25.948;2022-07-06T12:56:15;100757.31;;;31.40;40.45
71344;BME280;59146;43.850;25.948;2022-07-06T12:58:58;100734.13;;;31.08;39.92
71344;BME280;59146;43.850;25.948;2022-07-06T13:01:24;100733.41;;;31.19;39.83
71344;BME280;59146;43.850;25.948;2022-07-06T13:03:54;100671.94;;;30.72;39.99
71344;BME280;59146;43.850;25.948;2022-07-06T13:06:34;100748.53;;;30.95;40.55
71344;BME280;59146;43.850;25.948;2022-07-06T13:08:59;100745.97;;;31.31;39.54
71344;BME280;59146;43.850;25.948;2022-07-06T13:11:25;100742.63;;;31.29;40.17
71344;BME280;59146;43.850;25.948;2022-07-06T13:13:51;100723.69;;;31.36;40.34
71344;BME280;59146;43.850;25.948;2022-07-06T13:16:16;100722.63;;;31.19;40.08
71344;BME280;59146;43.850;25.948;2022-07-06T13:18:42;100669.78;;;30.87;40.41
71344;BME280;59146;43.850;25.948;2022-07-06T13:21:07;100688.03;;;31.09;40.96
71344;BME280;59146;43.850;25.948;2022-07-06T13:23:33;100717.06;;;31.14;40.63
71344;BME280;59146;43.850;25.948;2022-07-06T13:25:58;100724.53;;;30.87;40.52
71344;BME280;59146;43.850;25.948;2022-07-06T13:28:24;100705.81;;;31.17;40.76
71344;BME280;59146;43.850;25.948;2022-07-06T13:30:49;100683.22;;;30.62;40.50
71344;BME280;59146;43.850;25.948;2022-07-06T13:33:15;100683.41;;;30.60;40.59
71344;BME280;59146;43.850;25.948;2022-07-06T13:35:40;100681.75;;;30.66;41.45
71344;BME280;59146;43.850;25.948;2022-07-06T13:38:05;100671.72;;;30.73;41.76
71344;BME280;59146;43.850;25.948;2022-07-06T13:40:31;100708.19;;;31.07;39.53
71344;BME280;59146;43.850;25.948;2022-07-06T13:42:57;100723.88;;;31.41;40.04
71344;BME280;59146;43.850;25.948;2022-07-06T13:45:22;100700.56;;;31.04;40.81
71344;BME280;59146;43.850;25.948;2022-07-06T13:47:48;100642.38;;;30.58;40.54
71344;BME280;59146;43.850;25.948;2022-07-06T13:50:13;100711.28;;;31.10;40.03
71344;BME280;59146;43.850;25.948;2022-07-06T13:52:39;100704.19;;;30.85;40.70
71344;BME280;59146;43.850;25.948;2022-07-06T13:55:05;100661.38;;;30.45;40.94
71344;BME280;59146;43.850;25.948;2022-07-06T13:57:31;100712.28;;;30.85;41.46
71344;BME280;59146;43.850;25.948;2022-07-06T13:59:57;100662.13;;;30.52;41.34
71344;BME280;59146;43.850;25.948;2022-07-06T14:02:22;100702.66;;;31.02;41.57
71344;BME280;59146;43.850;25.948;2022-07-06T14:04:48;100661.09;;;30.53;41.38
71344;BME280;59146;43.850;25.948;2022-07-06T14:07:13;100725.88;;;30.72;41.56
71344;BME280;59146;43.850;25.948;2022-07-06T14:09:39;100705.56;;;30.38;42.14
71344;BME280;59146;43.850;25.948;2022-07-06T14:12:05;100677.84;;;30.24;42.53
71344;BME280;59146;43.850;25.948;2022-07-06T14:14:30;100703.16;;;30.54;41.91
71344;BME280;59146;43.850;25.948;2022-07-06T14:16:56;100676.78;;;30.25;42.55
71344;BME280;59146;43.850;25.948;2022-07-06T14:19:21;100675.00;;;30.06;42.65
71344;BME280;59146;43.850;25.948;2022-07-06T14:21:48;100713.56;;;30.07;43.60
71344;BME280;59146;43.850;25.948;2022-07-06T14:24:13;100698.31;;;29.81;44.56
71344;BME280;59146;43.850;25.948;2022-07-06T14:26:39;100700.06;;;29.43;45.34
71344;BME280;59146;43.850;25.948;2022-07-06T14:29:05;100675.25;;;28.75;45.42
71344;BME280;59146;43.850;25.948;2022-07-06T14:31:30;100715.19;;;29.11;46.31
71344;BME280;59146;43.850;25.948;2022-07-06T14:33:56;100721.38;;;29.38;45.04
71344;BME280;59146;43.850;25.948;2022-07-06T14:36:22;100714.09;;;29.64;45.03
71344;BME280;59146;43.850;25.948;2022-07-06T14:38:47;100703.88;;;29.99;43.42
71344;BME280;59146;43.850;25.948;2022-07-06T14:41:13;100660.28;;;30.09;42.75
71344;BME280;59146;43.850;25.948;2022-07-06T14:43:38;100630.25;;;30.12;42.21
71344;BME280;59146;43.850;25.948;2022-07-06T14:46:04;100577.88;;;29.63;42.15
71344;BME280;59146;43.850;25.948;2022-07-06T14:48:29;100716.13;;;30.71;42.11
71344;BME280;59146;43.850;25.948;2022-07-06T14:50:55;100680.09;;;30.34;40.97
71344;BME280;59146;43.850;25.948;2022-07-06T14:53:20;100659.38;;;29.83;42.54
71344;BME280;59146;43.850;25.948;2022-07-06T14:55:47;100688.28;;;29.31;44.95
71344;BME280;59146;43.850;25.948;2022-07-06T14:58:13;100704.63;;;29.09;45.98
71344;BME280;59146;43.850;25.948;2022-07-06T15:00:38;100689.94;;;29.05;45.86
71344;BME280;59146;43.850;25.948;2022-07-06T15:03:04;100717.69;;;29.39;45.84
71344;BME280;59146;43.850;25.948;2022-07-06T15:05:29;100707.31;;;29.36;46.23
71344;BME280;59146;43.850;25.948;2022-07-06T15:07:55;100642.56;;;29.11;46.43
71344;BME280;59146;43.850;25.948;2022-07-06T15:10:20;100702.09;;;29.60;46.81
71344;BME280;59146;43.850;25.948;2022-07-06T15:12:46;100616.09;;;29.08;46.20
71344;BME280;59146;43.850;25.948;2022-07-06T15:15:12;100689.88;;;29.58;46.16
71344;BME280;59146;43.850;25.948;2022-07-06T15:17:38;100728.78;;;29.75;46.04
71344;BME280;59146;43.850;25.948;2022-07-06T15:20:04;100707.47;;;29.67;46.25
71344;BME280;59146;43.850;25.948;2022-07-06T15:22:30;100686.81;;;29.48;45.88
71344;BME280;59146;43.850;25.948;2022-07-06T15:24:56;100663.66;;;29.27;46.18
71344;BME280;59146;43.850;25.948;2022-07-06T15:27:21;100635.75;;;29.08;46.47
71344;BME280;59146;43.850;25.948;2022-07-06T15:29:47;100670.09;;;29.26;46.73
71344;BME280;59146;43.850;25.948;2022-07-06T15:32:12;100689.50;;;29.35;46.64
71344;BME280;59146;43.850;25.948;2022-07-06T15:34:38;100650.22;;;29.07;46.98
71344;BME280;59146;43.850;25.948;2022-07-06T15:37:03;100672.34;;;29.29;46.82
71344;BME280;59146;43.850;25.948;2022-07-06T15:39:29;100696.78;;;29.41;47.17
71344;BME280;59146;43.850;25.948;2022-07-06T15:41:54;100700.25;;;29.48;46.91
71344;BME280;59146;43.850;25.948;2022-07-06T15:44:20;100696.75;;;29.15;47.64
71344;BME280;59146;43.850;25.948;2022-07-06T15:46:45;100705.88;;;29.20;47.30
71344;BME280;59146;43.850;25.948;2022-07-06T15:49:14;100712.91;;;29.15;48.28
71344;BME280;59146;43.850;25.948;2022-07-06T15:51:39;100710.81;;;29.03;48.41
71344;BME280;59146;43.850;25.948;2022-07-06T15:54:05;100689.72;;;28.74;48.44
71344;BME280;59146;43.850;25.948;2022-07-06T15:56:30;100719.94;;;28.96;48.31
71344;BME280;59146;43.850;25.948;2022-07-06T15:58:56;100679.78;;;28.68;48.72
71344;BME280;59146;43.850;25.948;2022-07-06T16:01:21;100659.91;;;28.50;49.40
71344;BME280;59146;43.850;25.948;2022-07-06T16:03:47;100684.78;;;28.71;49.20
71344;BME280;59146;43.850;25.948;2022-07-06T16:06:12;100679.75;;;28.42;50.08
71344;BME280;59146;43.850;25.948;2022-07-06T16:08:38;100656.94;;;28.12;49.79
71344;BME280;59146;43.850;25.948;2022-07-06T16:11:04;100718.56;;;28.33;51.64
71344;BME280;59146;43.850;25.948;2022-07-06T16:13:29;100697.88;;;28.27;51.33
71344;BME280;59146;43.850;25.948;2022-07-06T16:15:55;100738.44;;;28.45;50.57
71344;BME280;59146;43.850;25.948;2022-07-06T16:18:20;100700.78;;;28.25;50.76
71344;BME280;59146;43.850;25.948;2022-07-06T16:20:48;100658.34;;;28.01;51.43
71344;BME280;59146;43.850;25.948;2022-07-06T16:23:15;100701.81;;;28.31;50.98
71344;BME280;59146;43.850;25.948;2022-07-06T16:25:40;100673.84;;;28.06;50.87
71344;BME280;59146;43.850;25.948;2022-07-06T16:28:06;100668.16;;;27.81;50.93
71344;BME280;59146;43.850;25.948;2022-07-06T16:30:31;100661.69;;;27.63;51.22
71344;BME280;59146;43.850;25.948;2022-07-06T16:32:57;100734.88;;;27.91;52.30
71344;BME280;59146;43.850;25.948;2022-07-06T16:35:22;100749.53;;;27.88;52.84
71344;BME280;59146;43.850;25.948;2022-07-06T16:37:48;100627.97;;;27.19;52.71
71344;BME280;59146;43.850;25.948;2022-07-06T16:40:15;100681.38;;;27.48;52.19
71344;BME280;59146;43.850;25.948;2022-07-06T16:42:40;100659.59;;;27.30;52.56
71344;BME280;59146;43.850;25.948;2022-07-06T16:45:06;100695.44;;;27.50;52.57
71344;BME280;59146;43.850;25.948;2022-07-06T16:47:32;100675.66;;;27.51;52.25
71344;BME280;59146;43.850;25.948;2022-07-06T16:50:01;100708.78;;;27.72;52.10
71344;BME280;59146;43.850;25.948;2022-07-06T16:52:27;100664.31;;;27.28;53.01
71344;BME280;59146;43.850;25.948;2022-07-06T16:54:53;100678.09;;;27.46;53.00
71344;BME280;59146;43.850;25.948;2022-07-06T16:57:21;100677.03;;;27.41;51.38
71344;BME280;59146;43.850;25.948;2022-07-06T16:59:47;100618.13;;;26.99;51.84
71344;BME280;59146;43.850;25.948;2022-07-06T17:02:13;100741.38;;;27.69;51.44
71344;BME280;59146;43.850;25.948;2022-07-06T17:04:44;100733.78;;;27.44;50.95
71344;BME280;59146;43.850;25.948;2022-07-06T17:07:10;100683.16;;;27.07;51.60
71344;BME280;59146;43.850;25.948;2022-07-06T17:09:36;100676.47;;;26.97;51.79
71344;BME280;59146;43.850;25.948;2022-07-06T17:12:02;100670.56;;;26.80;51.94
71344;BME280;59146;43.850;25.948;2022-07-06T17:14:27;100716.59;;;27.11;51.57
71344;BME280;59146;43.850;25.948;2022-07-06T17:16:53;100666.22;;;26.79;52.14
71344;BME280;59146;43.850;25.948;2022-07-06T17:19:20;100724.41;;;27.06;51.92
71344;BME280;59146;43.850;25.948;2022-07-06T17:21:45;100733.97;;;26.94;52.36
71344;BME280;59146;43.850;25.948;2022-07-06T17:24:11;100700.25;;;26.79;52.38
71344;BME280;59146;43.850;25.948;2022-07-06T17:26:36;100725.28;;;26.92;52.39
71344;BME280;59146;43.850;25.948;2022-07-06T17:29:04;100738.19;;;27.03;52.62
71344;BME280;59146;43.850;25.948;2022-07-06T17:31:31;100703.16;;;26.84;52.52
71344;BME280;59146;43.850;25.948;2022-07-06T17:33:58;100728.25;;;26.97;52.40
71344;BME280;59146;43.850;25.948;2022-07-06T17:36:24;100706.31;;;26.87;52.77
71344;BME280;59146;43.850;25.948;2022-07-06T17:38:51;100672.50;;;26.71;52.74
71344;BME280;59146;43.850;25.948;2022-07-06T17:41:16;100745.00;;;27.06;52.71
71344;BME280;59146;43.850;25.948;2022-07-06T17:43:41;100725.63;;;27.04;52.64
71344;BME280;59146;43.850;25.948;2022-07-06T17:46:07;100689.47;;;26.72;52.98
71344;BME280;59146;43.850;25.948;2022-07-06T17:48:33;100658.56;;;26.55;53.12
71344;BME280;59146;43.850;25.948;2022-07-06T17:50:58;100653.84;;;26.57;53.04
71344;BME280;59146;43.850;25.948;2022-07-06T17:53:23;100680.84;;;26.77;53.41
71344;BME280;59146;43.850;25.948;2022-07-06T17:55:49;100729.78;;;27.06;53.28
71344;BME280;59146;43.850;25.948;2022-07-06T17:58:15;100679.25;;;26.82;53.36
71344;BME280;59146;43.850;25.948;2022-07-06T18:00:41;100650.47;;;26.48;54.08
71344;BME280;59146;43.850;25.948;2022-07-06T18:03:07;100733.72;;;26.89;55.24
71344;BME280;59146;43.850;25.948;2022-07-06T18:05:33;100670.88;;;26.49;55.14
71344;BME280;59146;43.850;25.948;2022-07-06T18:07:59;100734.72;;;26.67;56.04
71344;BME280;59146;43.850;25.948;2022-07-06T18:10:26;100699.63;;;26.41;56.06